sensor_id;sensor_type;location;lat;lon;timestamp;P1;durP1;ratioP1;P2;durP2;ratioP2
77191;SDS011;66172;48.526;8.078;2024-01-10T00:01:36;25.25;;;9.05;;
77191;SDS011;66172;48.526;8.078;2024-01-10T00:04:01;23.00;;;9.57;;
77191;SDS011;66172;48.526;8.078;2024-01-10T00:06:28;22.73;;;8.80;;
77191;SDS011;66172;48.526;8.078;2024-01-10T00:08:54;25.23;;;9.18;;
77191;SDS011;66172;48.526;8.078;2024-01-10T00:11:20;23.08;;;8.43;;
77191;SDS011;66172;48.526;8.078;2024-01-10T00:13:45;24.40;;;8.70;;
77191;SDS011;66172;48.526;8.078;2024-01-10T00:16:12;23.23;;;8.40;;
77191;SDS011;66172;48.526;8.078;2024-01-10T00:18:41;23.38;;;7.90;;
77191;SDS011;66172;48.526;8.078;2024-01-10T00:21:07;22.23;;;7.47;;
77191;SDS011;66172;48.526;8.078;2024-01-10T00:23:33;21.40;;;7.47;;
77191;SDS011;66172;48.526;8.078;2024-01-10T00:25:59;24.73;;;7.97;;
77191;SDS011;66172;48.526;8.078;2024-01-10T00:28:25;25.38;;;9.23;;
77191;SDS011;66172;48.526;8.078;2024-01-10T00:30:51;25.50;;;8.50;;
77191;SDS011;66172;48.526;8.078;2024-01-10T00:33:17;25.17;;;9.60;;
77191;SDS011;66172;48.526;8.078;2024-01-10T00:35:43;26.23;;;8.77;;
77191;SDS011;66172;48.526;8.078;2024-01-10T00:38:09;22.42;;;8.52;;
77191;SDS011;66172;48.526;8.078;2024-01-10T00:40:35;28.98;;;9.70;;
77191;SDS011;66172;48.526;8.078;2024-01-10T00:43:01;24.63;;;8.93;;
77191;SDS011;66172;48.526;8.078;2024-01-10T00:45:28;22.37;;;8.60;;
77191;SDS011;66172;48.526;8.078;2024-01-10T00:47:54;23.25;;;9.13;;
77191;SDS011;66172;48.526;8.078;2024-01-10T00:50:19;24.30;;;8.68;;
77191;SDS011;66172;48.526;8.078;2024-01-10T00:52:46;25.07;;;9.63;;
77191;SDS011;66172;48.526;8.078;2024-01-10T00:55:12;24.03;;;8.60;;
77191;SDS011;66172;48.526;8.078;2024-01-10T00:57:38;24.67;;;9.32;;
77191;SDS011;66172;48.526;8.078;2024-01-10T01:00:05;24.75;;;9.52;;
77191;SDS011;66172;48.526;8.078;2024-01-10T01:02:32;25.30;;;9.23;;
77191;SDS011;66172;48.526;8.078;2024-01-10T01:04:58;25.67;;;9.40;;
77191;SDS011;66172;48.526;8.078;2024-01-10T01:07:24;25.25;;;9.95;;
77191;SDS011;66172;48.526;8.078;2024-01-10T01:09:49;24.33;;;9.82;;
77191;SDS011;66172;48.526;8.078;2024-01-10T01:12:15;23.42;;;9.65;;
77191;SDS011;66172;48.526;8.078;2024-01-10T01:14:41;29.23;;;10.20;;
77191;SDS011;66172;48.526;8.078;2024-01-10T01:17:07;24.90;;;10.13;;
77191;SDS011;66172;48.526;8.078;2024-01-10T01:19:33;27.08;;;10.48;;
77191;SDS011;66172;48.526;8.078;2024-01-10T01:21:59;26.73;;;10.57;;
77191;SDS011;66172;48.526;8.078;2024-01-10T01:24:25;27.92;;;10.80;;
77191;SDS011;66172;48.526;8.078;2024-01-10T01:26:51;26.20;;;10.00;;
77191;SDS011;66172;48.526;8.078;2024-01-10T01:29:17;29.23;;;11.32;;
77191;SDS011;66172;48.526;8.078;2024-01-10T01:31:44;26.63;;;10.77;;
77191;SDS011;66172;48.526;8.078;2024-01-10T01:34:10;33.20;;;11.15;;
77191;SDS011;66172;48.526;8.078;2024-01-10T01:36:36;29.17;;;10.80;;
77191;SDS011;66172;48.526;8.078;2024-01-10T01:39:02;28.60;;;10.80;;
77191;SDS011;66172;48.526;8.078;2024-01-10T01:41:28;28.10;;;11.30;;
77191;SDS011;66172;48.526;8.078;2024-01-10T01:43:54;28.90;;;11.32;;
77191;SDS011;66172;48.526;8.078;2024-01-10T01:46:21;26.80;;;11.43;;
77191;SDS011;66172;48.526;8.078;2024-01-10T01:48:47;29.92;;;11.48;;
77191;SDS011;66172;48.526;8.078;2024-01-10T01:51:14;28.30;;;10.73;;
77191;SDS011;66172;48.526;8.078;2024-01-10T01:53:42;33.38;;;11.77;;
77191;SDS011;66172;48.526;8.078;2024-01-10T01:56:10;29.45;;;11.52;;
77191;SDS011;66172;48.526;8.078;2024-01-10T01:58:37;29.17;;;12.25;;
77191;SDS011;66172;48.526;8.078;2024-01-10T02:01:05;28.63;;;11.75;;
77191;SDS011;66172;48.526;8.078;2024-01-10T02:03:32;28.70;;;10.90;;
77191;SDS011;66172;48.526;8.078;2024-01-10T02:06:01;27.55;;;10.35;;
77191;SDS011;66172;48.526;8.078;2024-01-10T02:08:31;26.65;;;10.73;;
77191;SDS011;66172;48.526;8.078;2024-01-10T02:11:00;31.65;;;13.38;;
77191;SDS011;66172;48.526;8.078;2024-01-10T02:13:27;34.85;;;13.65;;
77191;SDS011;66172;48.526;8.078;2024-01-10T02:15:54;33.80;;;12.80;;
77191;SDS011;66172;48.526;8.078;2024-01-10T02:18:20;33.33;;;12.55;;
77191;SDS011;66172;48.526;8.078;2024-01-10T02:20:46;33.47;;;12.48;;
77191;SDS011;66172;48.526;8.078;2024-01-10T02:23:12;31.40;;;12.75;;
77191;SDS011;66172;48.526;8.078;2024-01-10T02:25:39;28.10;;;12.27;;
77191;SDS011;66172;48.526;8.078;2024-01-10T02:28:06;33.08;;;12.95;;
77191;SDS011;66172;48.526;8.078;2024-01-10T02:30:33;31.42;;;12.82;;
77191;SDS011;66172;48.526;8.078;2024-01-10T02:32:59;32.35;;;11.95;;
77191;SDS011;66172;48.526;8.078;2024-01-10T02:35:25;29.77;;;11.70;;
77191;SDS011;66172;48.526;8.078;2024-01-10T02:37:52;29.73;;;12.13;;
77191;SDS011;66172;48.526;8.078;2024-01-10T02:40:22;32.65;;;12.32;;
77191;SDS011;66172;48.526;8.078;2024-01-10T02:42:48;33.78;;;12.60;;
77191;SDS011;66172;48.526;8.078;2024-01-10T02:45:14;33.90;;;12.82;;
77191;SDS011;66172;48.526;8.078;2024-01-10T02:47:40;33.30;;;12.40;;
77191;SDS011;66172;48.526;8.078;2024-01-10T02:50:06;32.63;;;12.48;;
77191;SDS011;66172;48.526;8.078;2024-01-10T02:52:32;32.08;;;12.88;;
77191;SDS011;66172;48.526;8.078;2024-01-10T02:54:58;30.17;;;12.57;;
77191;SDS011;66172;48.526;8.078;2024-01-10T02:57:24;31.50;;;13.00;;
77191;SDS011;66172;48.526;8.078;2024-01-10T02:59:50;30.70;;;12.23;;
77191;SDS011;66172;48.526;8.078;2024-01-10T03:02:15;34.08;;;11.60;;
77191;SDS011;66172;48.526;8.078;2024-01-10T03:04:41;29.53;;;11.40;;
77191;SDS011;66172;48.526;8.078;2024-01-10T03:07:07;27.63;;;12.07;;
77191;SDS011;66172;48.526;8.078;2024-01-10T03:09:33;28.38;;;11.52;;
77191;SDS011;66172;48.526;8.078;2024-01-10T03:11:59;30.02;;;11.40;;
77191;SDS011;66172;48.526;8.078;2024-01-10T03:14:25;31.17;;;11.77;;
77191;SDS011;66172;48.526;8.078;2024-01-10T03:16:51;29.55;;;10.68;;
77191;SDS011;66172;48.526;8.078;2024-01-10T03:19:17;27.02;;;10.93;;
77191;SDS011;66172;48.526;8.078;2024-01-10T03:21:42;28.13;;;11.50;;
77191;SDS011;66172;48.526;8.078;2024-01-10T03:24:08;25.48;;;11.00;;
77191;SDS011;66172;48.526;8.078;2024-01-10T03:26:34;26.45;;;11.48;;
77191;SDS011;66172;48.526;8.078;2024-01-10T03:29:00;28.00;;;11.52;;
77191;SDS011;66172;48.526;8.078;2024-01-10T03:31:27;28.67;;;11.13;;
77191;SDS011;66172;48.526;8.078;2024-01-10T03:33:54;26.95;;;10.80;;
77191;SDS011;66172;48.526;8.078;2024-01-10T03:36:20;29.40;;;10.80;;
77191;SDS011;66172;48.526;8.078;2024-01-10T03:38:46;33.88;;;13.15;;
77191;SDS011;66172;48.526;8.078;2024-01-10T03:41:12;30.07;;;10.83;;
77191;SDS011;66172;48.526;8.078;2024-01-10T03:43:41;34.30;;;12.77;;
77191;SDS011;66172;48.526;8.078;2024-01-10T03:46:07;33.03;;;12.27;;
77191;SDS011;66172;48.526;8.078;2024-01-10T03:48:34;27.48;;;11.40;;
77191;SDS011;66172;48.526;8.078;2024-01-10T03:51:00;26.10;;;10.73;;
77191;SDS011;66172;48.526;8.078;2024-01-10T03:53:26;29.05;;;12.13;;
77191;SDS011;66172;48.526;8.078;2024-01-10T03:55:52;27.05;;;10.82;;
77191;SDS011;66172;48.526;8.078;2024-01-10T03:58:18;26.48;;;9.88;;
77191;SDS011;66172;48.526;8.078;2024-01-10T04:00:44;25.70;;;9.60;;
77191;SDS011;66172;48.526;8.078;2024-01-10T04:03:10;27.13;;;10.20;;
77191;SDS011;66172;48.526;8.078;2024-01-10T04:05:36;23.95;;;9.63;;
77191;SDS011;66172;48.526;8.078;2024-01-10T04:08:02;23.17;;;9.87;;
77191;SDS011;66172;48.526;8.078;2024-01-10T04:10:29;28.50;;;10.88;;
77191;SDS011;66172;48.526;8.078;2024-01-10T04:12:55;27.13;;;10.60;;
77191;SDS011;66172;48.526;8.078;2024-01-10T04:15:21;27.15;;;10.30;;
77191;SDS011;66172;48.526;8.078;2024-01-10T04:17:47;22.17;;;9.60;;
77191;SDS011;66172;48.526;8.078;2024-01-10T04:20:13;25.38;;;9.82;;
77191;SDS011;66172;48.526;8.078;2024-01-10T04:22:39;24.15;;;9.38;;
77191;SDS011;66172;48.526;8.078;2024-01-10T04:25:08;26.45;;;10.35;;
77191;SDS011;66172;48.526;8.078;2024-01-10T04:27:34;26.13;;;10.60;;
77191;SDS011;66172;48.526;8.078;2024-01-10T04:30:00;28.45;;;11.48;;
77191;SDS011;66172;48.526;8.078;2024-01-10T04:32:26;24.88;;;11.10;;
77191;SDS011;66172;48.526;8.078;2024-01-10T04:34:52;25.20;;;9.77;;
77191;SDS011;66172;48.526;8.078;2024-01-10T04:37:17;25.90;;;10.27;;
77191;SDS011;66172;48.526;8.078;2024-01-10T04:39:43;24.45;;;9.07;;
77191;SDS011;66172;48.526;8.078;2024-01-10T04:42:10;24.48;;;9.70;;
77191;SDS011;66172;48.526;8.078;2024-01-10T04:44:36;21.92;;;9.65;;
77191;SDS011;66172;48.526;8.078;2024-01-10T04:47:03;25.90;;;10.17;;
77191;SDS011;66172;48.526;8.078;2024-01-10T04:49:29;23.60;;;9.63;;
77191;SDS011;66172;48.526;8.078;2024-01-10T04:51:55;23.88;;;9.80;;
77191;SDS011;66172;48.526;8.078;2024-01-10T04:54:21;25.58;;;9.43;;
77191;SDS011;66172;48.526;8.078;2024-01-10T04:56:47;28.73;;;10.47;;
77191;SDS011;66172;48.526;8.078;2024-01-10T04:59:13;25.00;;;9.48;;
77191;SDS011;66172;48.526;8.078;2024-01-10T05:01:39;23.73;;;10.10;;
77191;SDS011;66172;48.526;8.078;2024-01-10T05:04:05;26.20;;;9.45;;
77191;SDS011;66172;48.526;8.078;2024-01-10T05:06:31;26.07;;;9.97;;
77191;SDS011;66172;48.526;8.078;2024-01-10T05:08:57;23.38;;;9.57;;
77191;SDS011;66172;48.526;8.078;2024-01-10T05:11:24;22.42;;;9.68;;
77191;SDS011;66172;48.526;8.078;2024-01-10T05:13:53;26.92;;;10.70;;
77191;SDS011;66172;48.526;8.078;2024-01-10T05:16:19;24.93;;;9.47;;
77191;SDS011;66172;48.526;8.078;2024-01-10T05:18:45;24.17;;;10.18;;
77191;SDS011;66172;48.526;8.078;2024-01-10T05:21:12;23.17;;;9.43;;
77191;SDS011;66172;48.526;8.078;2024-01-10T05:23:37;23.90;;;9.85;;
77191;SDS011;66172;48.526;8.078;2024-01-10T05:26:06;27.10;;;10.20;;
77191;SDS011;66172;48.526;8.078;2024-01-10T05:28:32;26.67;;;9.57;;
77191;SDS011;66172;48.526;8.078;2024-01-10T05:30:58;25.30;;;9.73;;
77191;SDS011;66172;48.526;8.078;2024-01-10T05:33:24;29.17;;;10.55;;
77191;SDS011;66172;48.526;8.078;2024-01-10T05:35:50;23.23;;;9.53;;
77191;SDS011;66172;48.526;8.078;2024-01-10T05:38:16;26.67;;;11.35;;
77191;SDS011;66172;48.526;8.078;2024-01-10T05:40:42;24.95;;;9.93;;
77191;SDS011;66172;48.526;8.078;2024-01-10T05:43:08;24.37;;;9.60;;
77191;SDS011;66172;48.526;8.078;2024-01-10T05:45:36;25.48;;;10.02;;
77191;SDS011;66172;48.526;8.078;2024-01-10T05:48:02;29.58;;;10.27;;
77191;SDS011;66172;48.526;8.078;2024-01-10T05:50:28;24.30;;;9.70;;
77191;SDS011;66172;48.526;8.078;2024-01-10T05:52:54;27.17;;;10.30;;
77191;SDS011;66172;48.526;8.078;2024-01-10T05:55:20;26.23;;;10.83;;
77191;SDS011;66172;48.526;8.078;2024-01-10T05:57:46;25.63;;;10.43;;
77191;SDS011;66172;48.526;8.078;2024-01-10T06:00:12;29.02;;;10.60;;
77191;SDS011;66172;48.526;8.078;2024-01-10T06:02:39;26.50;;;9.80;;
77191;SDS011;66172;48.526;8.078;2024-01-10T06:05:08;25.48;;;10.57;;
77191;SDS011;66172;48.526;8.078;2024-01-10T06:07:35;25.52;;;10.10;;
77191;SDS011;66172;48.526;8.078;2024-01-10T06:10:02;28.42;;;10.43;;
77191;SDS011;66172;48.526;8.078;2024-01-10T06:12:28;31.45;;;12.10;;
77191;SDS011;66172;48.526;8.078;2024-01-10T06:14:54;27.10;;;10.40;;
77191;SDS011;66172;48.526;8.078;2024-01-10T06:17:20;27.40;;;11.07;;
77191;SDS011;66172;48.526;8.078;2024-01-10T06:19:46;28.77;;;11.82;;
77191;SDS011;66172;48.526;8.078;2024-01-10T06:22:13;32.17;;;13.10;;
77191;SDS011;66172;48.526;8.078;2024-01-10T06:24:39;28.30;;;11.63;;
77191;SDS011;66172;48.526;8.078;2024-01-10T06:27:06;32.50;;;13.13;;
77191;SDS011;66172;48.526;8.078;2024-01-10T06:29:32;29.98;;;12.30;;
77191;SDS011;66172;48.526;8.078;2024-01-10T06:31:58;30.90;;;11.75;;
77191;SDS011;66172;48.526;8.078;2024-01-10T06:34:26;32.28;;;12.40;;
77191;SDS011;66172;48.526;8.078;2024-01-10T06:36:53;32.58;;;12.73;;
77191;SDS011;66172;48.526;8.078;2024-01-10T06:39:19;31.87;;;12.97;;
77191;SDS011;66172;48.526;8.078;2024-01-10T06:41:48;33.13;;;13.10;;
77191;SDS011;66172;48.526;8.078;2024-01-10T06:44:14;32.60;;;11.75;;
77191;SDS011;66172;48.526;8.078;2024-01-10T06:46:43;30.25;;;12.90;;
77191;SDS011;66172;48.526;8.078;2024-01-10T06:49:09;28.38;;;11.68;;
77191;SDS011;66172;48.526;8.078;2024-01-10T06:51:36;32.13;;;12.27;;
77191;SDS011;66172;48.526;8.078;2024-01-10T06:54:02;32.83;;;12.82;;
77191;SDS011;66172;48.526;8.078;2024-01-10T06:56:31;28.35;;;12.50;;
77191;SDS011;66172;48.526;8.078;2024-01-10T06:58:58;29.50;;;11.93;;
77191;SDS011;66172;48.526;8.078;2024-01-10T07:01:24;33.37;;;13.00;;
77191;SDS011;66172;48.526;8.078;2024-01-10T07:03:51;30.27;;;12.40;;
77191;SDS011;66172;48.526;8.078;2024-01-10T07:06:18;30.70;;;11.75;;
77191;SDS011;66172;48.526;8.078;2024-01-10T07:08:44;39.17;;;12.65;;
77191;SDS011;66172;48.526;8.078;2024-01-10T07:11:10;34.33;;;12.00;;
77191;SDS011;66172;48.526;8.078;2024-01-10T07:13:40;32.87;;;11.87;;
77191;SDS011;66172;48.526;8.078;2024-01-10T07:16:06;28.95;;;11.13;;
77191;SDS011;66172;48.526;8.078;2024-01-10T07:18:33;29.77;;;11.10;;
77191;SDS011;66172;48.526;8.078;2024-01-10T07:20:59;28.90;;;11.13;;
77191;SDS011;66172;48.526;8.078;2024-01-10T07:23:25;28.45;;;10.80;;
77191;SDS011;66172;48.526;8.078;2024-01-10T07:25:51;28.63;;;10.87;;
77191;SDS011;66172;48.526;8.078;2024-01-10T07:28:18;30.45;;;11.23;;
77191;SDS011;66172;48.526;8.078;2024-01-10T07:30:45;35.05;;;12.13;;
77191;SDS011;66172;48.526;8.078;2024-01-10T07:33:12;27.80;;;10.40;;
77191;SDS011;66172;48.526;8.078;2024-01-10T07:35:38;30.77;;;10.90;;
77191;SDS011;66172;48.526;8.078;2024-01-10T07:38:04;28.40;;;10.77;;
77191;SDS011;66172;48.526;8.078;2024-01-10T07:40:34;30.67;;;12.35;;
77191;SDS011;66172;48.526;8.078;2024-01-10T07:43:00;32.60;;;13.10;;
77191;SDS011;66172;48.526;8.078;2024-01-10T07:45:26;35.28;;;13.48;;
77191;SDS011;66172;48.526;8.078;2024-01-10T07:47:52;31.60;;;12.60;;
77191;SDS011;66172;48.526;8.078;2024-01-10T07:50:18;34.70;;;13.97;;
77191;SDS011;66172;48.526;8.078;2024-01-10T07:52:45;35.53;;;13.40;;
77191;SDS011;66172;48.526;8.078;2024-01-10T07:55:11;33.60;;;13.15;;
77191;SDS011;66172;48.526;8.078;2024-01-10T07:57:38;33.28;;;12.93;;
77191;SDS011;66172;48.526;8.078;2024-01-10T08:00:05;36.97;;;12.90;;
77191;SDS011;66172;48.526;8.078;2024-01-10T08:02:33;33.30;;;11.80;;
77191;SDS011;66172;48.526;8.078;2024-01-10T08:05:00;32.67;;;11.93;;
77191;SDS011;66172;48.526;8.078;2024-01-10T08:07:30;29.75;;;11.07;;
77191;SDS011;66172;48.526;8.078;2024-01-10T08:10:01;33.10;;;12.55;;
77191;SDS011;66172;48.526;8.078;2024-01-10T08:12:27;35.00;;;12.43;;
77191;SDS011;66172;48.526;8.078;2024-01-10T08:14:53;35.75;;;11.02;;
77191;SDS011;66172;48.526;8.078;2024-01-10T08:17:19;29.33;;;11.20;;
77191;SDS011;66172;48.526;8.078;2024-01-10T08:19:45;33.30;;;11.30;;
77191;SDS011;66172;48.526;8.078;2024-01-10T08:22:11;31.07;;;11.80;;
77191;SDS011;66172;48.526;8.078;2024-01-10T08:24:38;27.52;;;10.95;;
77191;SDS011;66172;48.526;8.078;2024-01-10T08:27:04;32.20;;;11.30;;
77191;SDS011;66172;48.526;8.078;2024-01-10T08:29:29;29.65;;;10.65;;
77191;SDS011;66172;48.526;8.078;2024-01-10T08:31:57;28.07;;;10.60;;
77191;SDS011;66172;48.526;8.078;2024-01-10T08:34:23;31.10;;;10.27;;
77191;SDS011;66172;48.526;8.078;2024-01-10T08:36:50;32.78;;;10.93;;
77191;SDS011;66172;48.526;8.078;2024-01-10T08:39:17;28.25;;;10.05;;
77191;SDS011;66172;48.526;8.078;2024-01-10T08:41:44;30.10;;;9.93;;
77191;SDS011;66172;48.526;8.078;2024-01-10T08:44:10;33.07;;;12.43;;
77191;SDS011;66172;48.526;8.078;2024-01-10T08:46:36;31.48;;;12.93;;
77191;SDS011;66172;48.526;8.078;2024-01-10T08:49:02;34.33;;;12.90;;
77191;SDS011;66172;48.526;8.078;2024-01-10T08:51:28;31.85;;;11.98;;
77191;SDS011;66172;48.526;8.078;2024-01-10T08:53:54;33.93;;;13.03;;
77191;SDS011;66172;48.526;8.078;2024-01-10T08:56:22;37.53;;;13.38;;
77191;SDS011;66172;48.526;8.078;2024-01-10T08:58:48;30.20;;;11.32;;
77191;SDS011;66172;48.526;8.078;2024-01-10T09:01:14;27.95;;;10.70;;
77191;SDS011;66172;48.526;8.078;2024-01-10T09:03:40;28.48;;;10.35;;
77191;SDS011;66172;48.526;8.078;2024-01-10T09:06:06;27.40;;;10.23;;
77191;SDS011;66172;48.526;8.078;2024-01-10T09:08:34;28.13;;;11.27;;
77191;SDS011;66172;48.526;8.078;2024-01-10T09:11:00;29.48;;;10.70;;
77191;SDS011;66172;48.526;8.078;2024-01-10T09:13:26;26.55;;;10.88;;
77191;SDS011;66172;48.526;8.078;2024-01-10T09:15:52;26.13;;;10.63;;
77191;SDS011;66172;48.526;8.078;2024-01-10T09:18:18;29.63;;;10.38;;
77191;SDS011;66172;48.526;8.078;2024-01-10T09:20:44;29.70;;;11.80;;
77191;SDS011;66172;48.526;8.078;2024-01-10T09:23:10;29.27;;;11.68;;
77191;SDS011;66172;48.526;8.078;2024-01-10T09:25:36;26.53;;;10.83;;
77191;SDS011;66172;48.526;8.078;2024-01-10T09:28:04;28.20;;;11.20;;
77191;SDS011;66172;48.526;8.078;2024-01-10T09:30:30;27.10;;;10.57;;
77191;SDS011;66172;48.526;8.078;2024-01-10T09:32:56;46.88;;;17.05;;
77191;SDS011;66172;48.526;8.078;2024-01-10T09:35:22;33.60;;;13.77;;
77191;SDS011;66172;48.526;8.078;2024-01-10T09:37:48;27.38;;;11.13;;
77191;SDS011;66172;48.526;8.078;2024-01-10T09:40:15;27.50;;;11.75;;
77191;SDS011;66172;48.526;8.078;2024-01-10T09:42:45;30.08;;;11.40;;
77191;SDS011;66172;48.526;8.078;2024-01-10T09:45:14;32.53;;;13.35;;
77191;SDS011;66172;48.526;8.078;2024-01-10T09:47:43;31.83;;;12.70;;
77191;SDS011;66172;48.526;8.078;2024-01-10T09:50:13;32.58;;;13.07;;
77191;SDS011;66172;48.526;8.078;2024-01-10T09:52:48;36.28;;;13.55;;
77191;SDS011;66172;48.526;8.078;2024-01-10T09:55:17;32.13;;;12.90;;
77191;SDS011;66172;48.526;8.078;2024-01-10T09:57:48;29.15;;;13.00;;
77191;SDS011;66172;48.526;8.078;2024-01-10T10:00:15;32.00;;;12.73;;
77191;SDS011;66172;48.526;8.078;2024-01-10T10:02:42;30.98;;;12.63;;
77191;SDS011;66172;48.526;8.078;2024-01-10T10:05:08;26.58;;;12.05;;
77191;SDS011;66172;48.526;8.078;2024-01-10T10:07:48;28.40;;;11.93;;
77191;SDS011;66172;48.526;8.078;2024-01-10T10:10:15;27.90;;;12.57;;
77191;SDS011;66172;48.526;8.078;2024-01-10T10:12:45;32.40;;;11.80;;
77191;SDS011;66172;48.526;8.078;2024-01-10T10:15:13;27.55;;;11.52;;
77191;SDS011;66172;48.526;8.078;2024-01-10T10:17:41;28.40;;;11.68;;
77191;SDS011;66172;48.526;8.078;2024-01-10T10:20:13;28.08;;;12.27;;
77191;SDS011;66172;48.526;8.078;2024-01-10T10:22:58;25.48;;;11.27;;
77191;SDS011;66172;48.526;8.078;2024-01-10T10:25:27;27.20;;;11.10;;
77191;SDS011;66172;48.526;8.078;2024-01-10T10:27:56;28.65;;;12.70;;
77191;SDS011;66172;48.526;8.078;2024-01-10T10:30:22;28.83;;;12.70;;
77191;SDS011;66172;48.526;8.078;2024-01-10T10:32:48;33.42;;;12.82;;
77191;SDS011;66172;48.526;8.078;2024-01-10T10:35:15;27.17;;;12.43;;
77191;SDS011;66172;48.526;8.078;2024-01-10T10:37:41;29.03;;;13.93;;
77191;SDS011;66172;48.526;8.078;2024-01-10T10:40:07;32.78;;;12.90;;
77191;SDS011;66172;48.526;8.078;2024-01-10T10:42:34;29.08;;;12.65;;
77191;SDS011;66172;48.526;8.078;2024-01-10T10:45:05;30.30;;;13.85;;
77191;SDS011;66172;48.526;8.078;2024-01-10T10:47:36;32.27;;;13.73;;
77191;SDS011;66172;48.526;8.078;2024-01-10T10:50:04;26.33;;;12.60;;
77191;SDS011;66172;48.526;8.078;2024-01-10T10:52:31;30.70;;;13.15;;
77191;SDS011;66172;48.526;8.078;2024-01-10T10:54:58;29.35;;;13.02;;
77191;SDS011;66172;48.526;8.078;2024-01-10T10:57:25;32.53;;;13.38;;
77191;SDS011;66172;48.526;8.078;2024-01-10T10:59:52;30.80;;;13.47;;
77191;SDS011;66172;48.526;8.078;2024-01-10T11:02:20;29.75;;;12.38;;
77191;SDS011;66172;48.526;8.078;2024-01-10T11:04:49;29.63;;;13.52;;
77191;SDS011;66172;48.526;8.078;2024-01-10T11:07:19;29.35;;;12.43;;
77191;SDS011;66172;48.526;8.078;2024-01-10T11:09:45;33.55;;;13.35;;
77191;SDS011;66172;48.526;8.078;2024-01-10T11:12:27;28.77;;;12.77;;
77191;SDS011;66172;48.526;8.078;2024-01-10T11:15:14;25.92;;;11.85;;
77191;SDS011;66172;48.526;8.078;2024-01-10T11:18:02;24.52;;;11.23;;
77191;SDS011;66172;48.526;8.078;2024-01-10T11:26:04;21.13;;;9.63;;
77191;SDS011;66172;48.526;8.078;2024-01-10T11:28:31;23.77;;;10.20;;
77191;SDS011;66172;48.526;8.078;2024-01-10T11:30:57;23.45;;;10.20;;
77191;SDS011;66172;48.526;8.078;2024-01-10T11:33:34;23.80;;;10.18;;
77191;SDS011;66172;48.526;8.078;2024-01-10T11:36:06;24.63;;;10.10;;
77191;SDS011;66172;48.526;8.078;2024-01-10T11:41:23;24.02;;;10.18;;
77191;SDS011;66172;48.526;8.078;2024-01-10T11:44:25;24.48;;;10.57;;
77191;SDS011;66172;48.526;8.078;2024-01-10T11:46:52;21.08;;;9.38;;
77191;SDS011;66172;48.526;8.078;2024-01-10T11:49:20;25.17;;;10.82;;
77191;SDS011;66172;48.526;8.078;2024-01-10T11:51:48;25.57;;;10.60;;
77191;SDS011;66172;48.526;8.078;2024-01-10T11:57:00;20.35;;;9.18;;
77191;SDS011;66172;48.526;8.078;2024-01-10T11:59:26;23.63;;;10.60;;
77191;SDS011;66172;48.526;8.078;2024-01-10T12:01:53;26.05;;;10.75;;
77191;SDS011;66172;48.526;8.078;2024-01-10T12:04:19;22.53;;;10.00;;
77191;SDS011;66172;48.526;8.078;2024-01-10T12:06:47;25.05;;;10.88;;
77191;SDS011;66172;48.526;8.078;2024-01-10T12:09:13;22.38;;;10.55;;
77191;SDS011;66172;48.526;8.078;2024-01-10T12:11:39;24.63;;;10.88;;
77191;SDS011;66172;48.526;8.078;2024-01-10T12:14:08;25.38;;;11.35;;
77191;SDS011;66172;48.526;8.078;2024-01-10T12:16:34;30.07;;;11.43;;
77191;SDS011;66172;48.526;8.078;2024-01-10T12:19:00;22.40;;;10.55;;
77191;SDS011;66172;48.526;8.078;2024-01-10T12:21:26;25.33;;;10.95;;
77191;SDS011;66172;48.526;8.078;2024-01-10T12:23:52;29.15;;;11.98;;
77191;SDS011;66172;48.526;8.078;2024-01-10T12:26:18;27.60;;;11.13;;
77191;SDS011;66172;48.526;8.078;2024-01-10T12:28:57;23.10;;;10.48;;
77191;SDS011;66172;48.526;8.078;2024-01-10T12:31:24;26.98;;;12.00;;
77191;SDS011;66172;48.526;8.078;2024-01-10T12:33:52;27.95;;;11.55;;
77191;SDS011;66172;48.526;8.078;2024-01-10T12:36:20;27.95;;;12.40;;
77191;SDS011;66172;48.526;8.078;2024-01-10T12:38:47;28.40;;;12.70;;
77191;SDS011;66172;48.526;8.078;2024-01-10T12:41:16;26.75;;;12.85;;
77191;SDS011;66172;48.526;8.078;2024-01-10T12:43:43;30.02;;;12.52;;
77191;SDS011;66172;48.526;8.078;2024-01-10T12:46:13;27.55;;;12.43;;
77191;SDS011;66172;48.526;8.078;2024-01-10T12:48:40;31.90;;;14.33;;
77191;SDS011;66172;48.526;8.078;2024-01-10T12:51:09;32.60;;;13.30;;
77191;SDS011;66172;48.526;8.078;2024-01-10T12:53:37;30.35;;;13.80;;
77191;SDS011;66172;48.526;8.078;2024-01-10T12:56:07;30.27;;;14.10;;
77191;SDS011;66172;48.526;8.078;2024-01-10T12:58:35;30.73;;;13.40;;
77191;SDS011;66172;48.526;8.078;2024-01-10T13:01:04;28.87;;;13.37;;
77191;SDS011;66172;48.526;8.078;2024-01-10T13:03:31;26.70;;;12.30;;
77191;SDS011;66172;48.526;8.078;2024-01-10T13:05:57;27.38;;;12.25;;
77191;SDS011;66172;48.526;8.078;2024-01-10T13:08:24;25.65;;;11.32;;
77191;SDS011;66172;48.526;8.078;2024-01-10T13:10:50;27.80;;;11.45;;
77191;SDS011;66172;48.526;8.078;2024-01-10T13:13:16;29.40;;;12.10;;
77191;SDS011;66172;48.526;8.078;2024-01-10T13:15:47;28.13;;;11.60;;
77191;SDS011;66172;48.526;8.078;2024-01-10T13:18:13;26.65;;;11.80;;
77191;SDS011;66172;48.526;8.078;2024-01-10T13:20:41;24.60;;;10.77;;
77191;SDS011;66172;48.526;8.078;2024-01-10T13:23:07;26.88;;;11.73;;
77191;SDS011;66172;48.526;8.078;2024-01-10T13:25:34;25.87;;;11.53;;
77191;SDS011;66172;48.526;8.078;2024-01-10T13:28:00;25.88;;;11.45;;
77191;SDS011;66172;48.526;8.078;2024-01-10T13:30:26;26.52;;;11.32;;
77191;SDS011;66172;48.526;8.078;2024-01-10T13:32:53;23.65;;;11.55;;
77191;SDS011;66172;48.526;8.078;2024-01-10T13:35:18;28.37;;;12.30;;
77191;SDS011;66172;48.526;8.078;2024-01-10T13:37:45;25.73;;;11.43;;
77191;SDS011;66172;48.526;8.078;2024-01-10T13:40:11;25.67;;;11.05;;
77191;SDS011;66172;48.526;8.078;2024-01-10T13:42:41;35.85;;;14.93;;
77191;SDS011;66172;48.526;8.078;2024-01-10T13:45:08;47.70;;;19.27;;
77191;SDS011;66172;48.526;8.078;2024-01-10T13:47:36;35.53;;;16.93;;
77191;SDS011;66172;48.526;8.078;2024-01-10T13:50:04;33.42;;;15.80;;
77191;SDS011;66172;48.526;8.078;2024-01-10T13:52:31;29.63;;;12.20;;
77191;SDS011;66172;48.526;8.078;2024-01-10T13:54:58;27.88;;;12.55;;
77191;SDS011;66172;48.526;8.078;2024-01-10T13:57:30;29.50;;;12.15;;
77191;SDS011;66172;48.526;8.078;2024-01-10T13:59:58;26.40;;;11.90;;
77191;SDS011;66172;48.526;8.078;2024-01-10T14:02:24;26.35;;;11.40;;
77191;SDS011;66172;48.526;8.078;2024-01-10T14:04:51;29.38;;;12.70;;
77191;SDS011;66172;48.526;8.078;2024-01-10T14:07:17;32.55;;;13.55;;
77191;SDS011;66172;48.526;8.078;2024-01-10T14:09:43;28.17;;;11.80;;
77191;SDS011;66172;48.526;8.078;2024-01-10T14:12:11;30.75;;;12.68;;
77191;SDS011;66172;48.526;8.078;2024-01-10T14:14:38;28.05;;;12.32;;
77191;SDS011;66172;48.526;8.078;2024-01-10T14:17:04;28.83;;;12.77;;
77191;SDS011;66172;48.526;8.078;2024-01-10T14:19:30;28.88;;;13.40;;
77191;SDS011;66172;48.526;8.078;2024-01-10T14:21:57;30.30;;;12.83;;
77191;SDS011;66172;48.526;8.078;2024-01-10T14:24:23;28.52;;;13.00;;
77191;SDS011;66172;48.526;8.078;2024-01-10T14:26:50;30.23;;;12.48;;
77191;SDS011;66172;48.526;8.078;2024-01-10T14:29:16;31.50;;;13.75;;
77191;SDS011;66172;48.526;8.078;2024-01-10T14:31:42;28.90;;;12.80;;
77191;SDS011;66172;48.526;8.078;2024-01-10T14:34:08;28.33;;;12.43;;